createdAt,value
2023-01-12T00:00:18.123Z,41.90
2023-01-12T00:01:42.231Z,44.40
2023-01-12T00:02:45.153Z,41.30
2023-01-12T00:03:48.593Z,45.30
2023-01-12T00:04:51.476Z,41.00
2023-01-12T00:06:01.021Z,42.20
2023-01-12T00:07:10.449Z,43.30
2023-01-12T00:08:13.453Z,45.80
2023-01-12T00:09:16.421Z,44.70
2023-01-12T00:10:20.096Z,42.90
2023-01-12T00:11:22.974Z,44.60
2023-01-12T00:12:25.825Z,44.10
2023-01-12T00:13:33.413Z,44.10
2023-01-12T00:14:37.744Z,43.30
2023-01-12T00:15:59.351Z,43.60
2023-01-12T00:17:02.860Z,43.10
2023-01-12T00:18:05.822Z,51.10
2023-01-12T00:19:16.092Z,46.00
2023-01-12T00:20:18.988Z,43.60
2023-01-12T00:21:21.837Z,42.20
2023-01-12T00:22:24.722Z,41.60
2023-01-12T00:23:29.394Z,48.00
2023-01-12T00:24:35.577Z,47.00
2023-01-12T00:25:38.434Z,46.30
2023-01-12T00:26:41.289Z,45.30
2023-01-12T00:27:44.131Z,46.70
2023-01-12T00:28:46.979Z,46.80
2023-01-12T00:29:50.468Z,41.90
2023-01-12T00:30:53.379Z,47.00
2023-01-12T00:31:57.891Z,50.90
2023-01-12T00:33:00.782Z,46.00
2023-01-12T00:34:03.650Z,43.80
2023-01-12T00:35:06.696Z,47.60
2023-01-12T00:36:15.792Z,46.90
2023-01-12T00:37:19.847Z,44.80
2023-01-12T00:38:22.743Z,47.50
2023-01-12T00:39:25.605Z,47.30
2023-01-12T00:40:28.583Z,45.70
2023-01-12T00:41:50.598Z,44.60
2023-01-12T00:43:12.180Z,42.40
2023-01-12T00:44:33.974Z,43.70
2023-01-12T00:45:36.854Z,42.90
2023-01-12T00:46:39.671Z,44.80
2023-01-12T00:47:43.509Z,48.90
2023-01-12T00:48:46.353Z,49.10
2023-01-12T00:49:50.085Z,45.10
2023-01-12T00:50:52.976Z,50.90
2023-01-12T00:51:55.857Z,47.80
2023-01-12T00:52:58.726Z,45.00
2023-01-12T00:54:04.751Z,43.70
2023-01-12T00:55:08.144Z,47.30
2023-01-12T00:56:10.963Z,43.60
2023-01-12T00:57:14.953Z,51.00
2023-01-12T00:58:17.890Z,44.20
2023-01-12T00:59:20.778Z,47.50
2023-01-12T01:00:23.961Z,46.00
2023-01-12T01:01:26.950Z,49.00
2023-01-12T01:02:30.026Z,47.30
2023-01-12T01:03:33.613Z,46.70
2023-01-12T01:04:36.564Z,45.20
2023-01-12T01:05:39.382Z,46.00
2023-01-12T01:06:42.407Z,44.00
2023-01-12T01:07:47.372Z,49.60
2023-01-12T01:08:50.478Z,48.80
2023-01-12T01:09:53.353Z,46.80
2023-01-12T01:11:11.148Z,47.80
2023-01-12T01:12:14.049Z,48.70
2023-01-12T01:13:16.881Z,50.80
2023-01-12T01:14:19.747Z,47.90
2023-01-12T01:15:22.601Z,47.80
2023-01-12T01:16:26.323Z,46.90
2023-01-12T01:17:29.665Z,49.40
2023-01-12T01:18:33.641Z,44.30
2023-01-12T01:19:36.955Z,52.00
2023-01-12T01:20:39.801Z,51.00
2023-01-12T01:21:42.691Z,47.50
2023-01-12T01:22:45.562Z,44.90
2023-01-12T01:23:48.527Z,51.60
2023-01-12T01:24:51.546Z,51.00
2023-01-12T01:25:55.231Z,50.40
2023-01-12T01:26:58.139Z,46.10
2023-01-12T01:28:00.982Z,55.80
2023-01-12T01:29:03.949Z,49.90
2023-01-12T01:30:07.427Z,51.50
2023-01-12T01:31:14.889Z,52.10
2023-01-12T01:32:17.787Z,47.60
2023-01-12T01:33:20.670Z,46.70
2023-01-12T01:34:24.080Z,49.40
2023-01-12T01:35:27.087Z,49.50
2023-01-12T01:36:29.970Z,53.20
2023-01-12T01:37:32.883Z,48.70
2023-01-12T01:38:36.259Z,48.60
2023-01-12T01:39:39.134Z,50.10
2023-01-12T01:40:43.508Z,44.50
2023-01-12T01:41:48.199Z,50.30
2023-01-12T01:42:51.093Z,50.60
2023-01-12T01:43:58.537Z,48.30
2023-01-12T01:45:04.744Z,45.60
2023-01-12T01:46:14.247Z,49.20
2023-01-12T01:47:26.344Z,46.00
2023-01-12T01:48:33.075Z,50.10
2023-01-12T01:49:46.317Z,45.00
2023-01-12T01:50:57.663Z,48.50
2023-01-12T01:52:06.427Z,47.20
2023-01-12T01:53:18.024Z,47.80
2023-01-12T01:54:21.758Z,49.60
2023-01-12T01:56:02.930Z,44.90
2023-01-12T01:57:07.590Z,47.00
2023-01-12T01:58:15.210Z,48.10
2023-01-12T01:59:23.775Z,48.70
2023-01-12T02:00:26.865Z,47.10
2023-01-12T02:01:30.284Z,52.80
2023-01-12T02:02:35.324Z,57.10
2023-01-12T02:03:39.682Z,47.60
2023-01-12T02:04:42.784Z,49.50
2023-01-12T02:05:48.152Z,50.20
2023-01-12T02:06:51.370Z,49.90
2023-01-12T02:07:57.010Z,45.00
2023-01-12T02:09:15.609Z,47.20
2023-01-12T02:10:19.573Z,49.20
2023-01-12T02:11:41.333Z,42.20
2023-01-12T02:13:03.676Z,43.70
2023-01-12T02:14:25.446Z,48.30
2023-01-12T02:15:54.659Z,45.50
2023-01-12T02:17:29.149Z,47.40
2023-01-12T02:18:45.631Z,47.40
2023-01-12T02:20:00.317Z,44.80
2023-01-12T02:21:12.622Z,47.50
2023-01-12T02:23:00.535Z,51.30
2023-01-12T02:24:26.042Z,44.00
2023-01-12T02:26:04.790Z,45.50
2023-01-12T02:27:35.406Z,47.40
2023-01-12T02:28:56.224Z,45.60
2023-01-12T02:30:07.925Z,49.20
2023-01-12T02:31:29.140Z,50.60
2023-01-12T02:32:44.638Z,49.20
2023-01-12T02:33:55.151Z,46.30
2023-01-12T02:35:07.578Z,46.50
2023-01-12T02:36:25.377Z,51.70
2023-01-12T02:37:52.850Z,45.80
2023-01-12T02:38:58.921Z,47.20
2023-01-12T02:40:06.438Z,48.00
2023-01-12T02:41:56.328Z,50.90
2023-01-12T02:43:07.682Z,49.50
2023-01-12T02:44:24.818Z,46.90
2023-01-12T02:45:34.681Z,44.10
2023-01-12T02:47:51.297Z,45.70
2023-01-12T02:49:01.401Z,43.40
2023-01-12T02:50:09.694Z,44.00
2023-01-12T02:51:32.247Z,44.00
2023-01-12T02:52:35.513Z,46.60
2023-01-12T02:53:44.902Z,47.60
2023-01-12T02:54:50.436Z,49.40
2023-01-12T02:55:54.289Z,44.70
2023-01-12T02:57:03.304Z,51.00
2023-01-12T02:58:10.064Z,46.90
2023-01-12T02:59:27.180Z,48.10
2023-01-12T03:00:30.723Z,47.80
2023-01-12T03:01:34.282Z,45.40
2023-01-12T03:02:38.345Z,48.10
2023-01-12T03:03:42.802Z,42.00
2023-01-12T03:04:46.044Z,45.70
2023-01-12T03:05:49.227Z,47.40
2023-01-12T03:06:58.005Z,44.10
2023-01-12T03:08:04.398Z,48.40
2023-01-12T03:09:08.256Z,44.90
2023-01-12T03:10:36.241Z,44.10
2023-01-12T03:11:41.618Z,44.90
2023-01-12T03:12:45.800Z,47.60
2023-01-12T03:13:52.064Z,40.80
2023-01-12T03:14:57.250Z,47.90
2023-01-12T03:16:01.518Z,45.50
2023-01-12T03:17:10.090Z,43.70
2023-01-12T03:18:23.096Z,45.40
2023-01-12T03:19:31.162Z,44.30
2023-01-12T03:20:38.673Z,49.80
2023-01-12T03:21:53.734Z,45.30
2023-01-12T03:23:08.046Z,45.70
2023-01-12T03:24:19.038Z,43.40
2023-01-12T03:25:24.815Z,42.80
2023-01-12T03:26:30.803Z,47.90
2023-01-12T03:27:40.471Z,47.50
2023-01-12T03:28:49.065Z,45.90
2023-01-12T03:30:00.653Z,42.70
2023-01-12T03:31:11.237Z,40.70
2023-01-12T03:32:14.441Z,43.40
2023-01-12T03:33:17.804Z,40.90
2023-01-12T03:34:21.107Z,43.20
2023-01-12T03:35:27.764Z,43.70
2023-01-12T03:36:46.059Z,46.00
2023-01-12T03:37:58.370Z,44.60
2023-01-12T03:39:16.339Z,38.50
2023-01-12T03:40:23.813Z,43.40
2023-01-12T03:41:56.244Z,44.10
2023-01-12T03:43:06.860Z,42.80
2023-01-12T03:44:20.507Z,45.00
2023-01-12T03:45:46.862Z,44.60
2023-01-12T03:47:03.739Z,40.00
2023-01-12T03:48:06.719Z,41.80
2023-01-12T03:49:24.828Z,43.30
2023-01-12T03:50:34.162Z,42.60
2023-01-12T03:51:41.974Z,38.50
2023-01-12T03:52:46.208Z,45.70
2023-01-12T03:53:52.505Z,46.30
2023-01-12T03:54:58.758Z,46.00
2023-01-12T03:56:06.396Z,47.60
2023-01-12T03:57:10.954Z,47.00
2023-01-12T03:58:14.757Z,45.70
2023-01-12T03:59:17.936Z,47.30
2023-01-12T04:00:23.438Z,49.30
2023-01-12T04:01:27.800Z,46.50
2023-01-12T04:02:31.164Z,47.00
2023-01-12T04:03:34.089Z,47.90
2023-01-12T04:04:37.076Z,46.70
2023-01-12T04:05:42.057Z,49.30
2023-01-12T04:06:45.287Z,51.40
2023-01-12T04:07:48.366Z,50.40
2023-01-12T04:08:51.266Z,46.60
2023-01-12T04:09:54.203Z,49.20
2023-01-12T04:10:57.139Z,49.50
2023-01-12T04:12:11.836Z,51.30
2023-01-12T04:13:14.785Z,53.50
2023-01-12T04:14:17.678Z,44.00
2023-01-12T04:15:20.624Z,47.80
2023-01-12T04:16:24.047Z,44.80
2023-01-12T04:17:28.080Z,50.60
2023-01-12T04:18:30.978Z,49.60
2023-01-12T04:19:33.865Z,48.90
2023-01-12T04:20:36.770Z,47.90
2023-01-12T04:21:58.130Z,47.00
2023-01-12T04:23:01.208Z,50.60
2023-01-12T04:24:04.294Z,49.70
2023-01-12T04:25:09.471Z,48.40
2023-01-12T04:26:12.894Z,49.60
2023-01-12T04:27:17.160Z,46.80
2023-01-12T04:28:20.044Z,55.30
2023-01-12T04:29:23.200Z,47.20
2023-01-12T04:30:27.995Z,46.30
2023-01-12T04:31:30.840Z,51.00
2023-01-12T04:32:33.891Z,51.00
2023-01-12T04:33:36.794Z,49.40
2023-01-12T04:34:39.740Z,50.40
2023-01-12T04:35:42.645Z,48.80
2023-01-12T04:36:45.538Z,50.00
2023-01-12T04:37:48.451Z,51.20
2023-01-12T04:38:51.337Z,46.90
2023-01-12T04:39:54.463Z,47.20
2023-01-12T04:40:57.354Z,48.10
2023-01-12T04:42:00.225Z,52.00
2023-01-12T04:43:08.742Z,44.70
2023-01-12T04:44:11.778Z,48.70
2023-01-12T04:45:14.819Z,43.10
2023-01-12T04:46:17.776Z,43.80
2023-01-12T04:47:20.698Z,47.00
2023-01-12T04:48:25.258Z,50.40
2023-01-12T04:49:28.246Z,46.20
2023-01-12T04:50:31.210Z,48.30
2023-01-12T04:51:34.585Z,52.10
2023-01-12T04:52:38.191Z,44.70
2023-01-12T04:53:41.156Z,45.60
2023-01-12T04:54:44.104Z,51.00
2023-01-12T04:55:47.563Z,47.40
2023-01-12T04:56:50.406Z,46.20
2023-01-12T04:57:53.847Z,48.80
2023-01-12T04:59:00.287Z,52.10
2023-01-12T05:00:05.215Z,45.70
2023-01-12T05:01:15.309Z,51.50
2023-01-12T05:03:22.218Z,40.90
2023-01-12T05:04:26.344Z,47.40
2023-01-12T05:05:34.142Z,48.30
2023-01-12T05:06:37.019Z,47.10
2023-01-12T05:08:02.698Z,47.50
2023-01-12T05:09:24.023Z,45.70
2023-01-12T05:10:26.981Z,45.10
2023-01-12T05:11:29.940Z,42.50
2023-01-12T05:12:32.937Z,47.50
2023-01-12T05:13:35.771Z,48.50
2023-01-12T05:14:38.634Z,45.80
2023-01-12T05:15:41.518Z,50.70
2023-01-12T05:16:44.460Z,46.90
2023-01-12T05:17:47.338Z,44.10
2023-01-12T05:18:53.433Z,47.50
2023-01-12T05:19:56.383Z,48.90
2023-01-12T05:20:59.707Z,45.50
2023-01-12T05:22:02.589Z,45.10
2023-01-12T05:23:05.534Z,47.30
2023-01-12T05:24:08.631Z,43.20
2023-01-12T05:25:11.555Z,47.50
2023-01-12T05:26:14.797Z,47.00
2023-01-12T05:27:18.317Z,51.00
2023-01-12T05:28:21.223Z,45.50
2023-01-12T05:29:24.046Z,44.60
2023-01-12T05:30:29.969Z,41.30
2023-01-12T05:31:35.245Z,44.20
2023-01-12T05:32:39.343Z,40.10
2023-01-12T05:33:42.997Z,41.20
2023-01-12T05:34:45.951Z,45.30
2023-01-12T05:35:48.796Z,51.10
2023-01-12T05:36:51.797Z,46.10
2023-01-12T05:37:57.078Z,45.10
2023-01-12T05:39:00.017Z,43.30
2023-01-12T05:40:03.360Z,50.30
2023-01-12T05:41:07.526Z,43.10
2023-01-12T05:42:28.907Z,45.90
2023-01-12T05:43:50.575Z,44.30
2023-01-12T05:44:53.492Z,42.70
2023-01-12T05:45:56.518Z,45.30
2023-01-12T05:46:59.438Z,40.80
2023-01-12T05:48:02.907Z,47.80
2023-01-12T05:49:05.810Z,47.00
2023-01-12T05:50:09.180Z,45.40
2023-01-12T05:51:12.529Z,51.50
2023-01-12T05:52:15.482Z,45.80
2023-01-12T05:53:18.342Z,44.90
2023-01-12T05:54:21.209Z,47.50
2023-01-12T05:55:24.154Z,46.10
2023-01-12T05:56:27.917Z,49.70
2023-01-12T05:57:31.563Z,46.00
2023-01-12T05:58:34.579Z,42.00
2023-01-12T05:59:37.507Z,48.40
2023-01-12T06:00:40.960Z,43.40
2023-01-12T06:01:44.272Z,43.10
2023-01-12T06:02:47.308Z,46.20
2023-01-12T06:03:58.711Z,46.80
2023-01-12T06:05:01.824Z,47.00
2023-01-12T06:06:05.125Z,47.50
2023-01-12T06:07:08.221Z,47.40
2023-01-12T06:08:11.279Z,45.00
2023-01-12T06:09:14.274Z,49.60
2023-01-12T06:10:17.919Z,52.30
2023-01-12T06:11:40.473Z,48.30
2023-01-12T06:13:02.198Z,46.80
2023-01-12T06:14:05.803Z,47.20
2023-01-12T06:15:09.255Z,50.60
2023-01-12T06:16:12.149Z,52.10
2023-01-12T06:17:15.122Z,54.00
2023-01-12T06:18:18.975Z,50.90
2023-01-12T06:19:21.861Z,48.70
2023-01-12T06:20:24.730Z,49.80
2023-01-12T06:21:27.593Z,48.80
2023-01-12T06:22:30.447Z,53.50
2023-01-12T06:23:35.697Z,52.10
2023-01-12T06:24:38.834Z,54.30
2023-01-12T06:25:41.787Z,56.40
2023-01-12T06:26:45.346Z,57.10
2023-01-12T06:27:48.275Z,56.60
2023-01-12T06:28:51.323Z,60.00
2023-01-12T06:29:54.530Z,55.70
2023-01-12T06:31:04.234Z,57.60
2023-01-12T06:32:07.118Z,57.60
2023-01-12T06:33:10.446Z,59.20
2023-01-12T06:34:13.349Z,61.70
2023-01-12T06:35:19.495Z,59.80
2023-01-12T06:36:22.774Z,58.50
2023-01-12T06:37:25.904Z,58.70
2023-01-12T06:38:31.484Z,59.40
2023-01-12T06:39:34.872Z,55.40
2023-01-12T06:40:37.768Z,51.30
2023-01-12T06:41:59.601Z,54.70
2023-01-12T06:43:18.121Z,53.60
2023-01-12T06:44:21.163Z,58.10
2023-01-12T06:45:24.094Z,55.30
2023-01-12T06:46:27.786Z,53.70
2023-01-12T06:47:33.976Z,57.60
2023-01-12T06:48:38.921Z,54.60
2023-01-12T06:49:42.379Z,54.40
2023-01-12T06:50:45.351Z,50.10
2023-01-12T06:51:51.416Z,52.30
2023-01-12T06:52:55.844Z,58.20
2023-01-12T06:53:58.710Z,58.30
2023-01-12T06:55:01.600Z,54.30
2023-01-12T06:56:04.960Z,51.10
2023-01-12T06:57:07.942Z,57.50
2023-01-12T06:58:11.250Z,52.10
2023-01-12T06:59:14.166Z,52.20
2023-01-12T07:00:17.317Z,52.40
2023-01-12T07:01:20.564Z,57.20
2023-01-12T07:02:23.675Z,57.80
2023-01-12T07:03:26.579Z,55.20
2023-01-12T07:04:29.443Z,53.80
2023-01-12T07:05:32.395Z,52.70
2023-01-12T07:06:35.358Z,48.80
2023-01-12T07:07:40.201Z,49.70
2023-01-12T07:08:43.509Z,56.50
2023-01-12T07:09:46.395Z,53.50
2023-01-12T07:10:49.298Z,51.50
2023-01-12T07:11:54.078Z,52.10
2023-01-12T07:13:00.697Z,50.30
2023-01-12T07:14:03.563Z,50.60
2023-01-12T07:15:07.506Z,52.00
2023-01-12T07:16:10.406Z,51.60
2023-01-12T07:17:13.386Z,52.60
2023-01-12T07:18:16.319Z,48.20
2023-01-12T07:19:19.557Z,44.80
2023-01-12T07:20:22.466Z,51.00
2023-01-12T07:21:25.336Z,48.70
2023-01-12T07:22:28.972Z,50.00
2023-01-12T07:23:31.866Z,46.70
2023-01-12T07:24:34.747Z,50.60
2023-01-12T07:25:37.702Z,46.30
2023-01-12T07:26:40.578Z,49.90
2023-01-12T07:27:54.730Z,50.20
2023-01-12T07:28:57.675Z,45.40
2023-01-12T07:30:00.532Z,50.60
2023-01-12T07:31:05.717Z,47.20
2023-01-12T07:32:08.612Z,44.10
2023-01-12T07:33:14.070Z,47.30
2023-01-12T07:34:17.096Z,47.00
2023-01-12T07:35:20.050Z,45.50
2023-01-12T07:36:23.488Z,42.90
2023-01-12T07:37:26.336Z,44.60
2023-01-12T07:38:30.575Z,43.50
2023-01-12T07:39:33.621Z,47.70
2023-01-12T07:40:36.692Z,45.90
2023-01-12T07:41:58.350Z,44.00
2023-01-12T07:43:03.229Z,43.60
2023-01-12T07:44:06.262Z,42.20
2023-01-12T07:45:09.723Z,43.50
2023-01-12T07:46:12.776Z,43.70
2023-01-12T07:47:15.750Z,39.60
2023-01-12T07:48:18.649Z,39.80
2023-01-12T07:49:21.630Z,40.50
2023-01-12T07:50:26.958Z,39.20
2023-01-12T07:51:31.394Z,42.60
2023-01-12T07:52:34.976Z,41.70
2023-01-12T07:53:37.923Z,42.60
2023-01-12T07:54:40.859Z,37.60
2023-01-12T07:55:43.926Z,40.40
2023-01-12T07:56:46.846Z,38.60
2023-01-12T07:57:57.986Z,44.80
2023-01-12T07:59:00.837Z,36.40
2023-01-12T08:00:06.193Z,43.00
2023-01-12T08:01:09.445Z,39.70
2023-01-12T08:02:16.653Z,43.50
2023-01-12T08:03:19.959Z,39.60
2023-01-12T08:04:23.288Z,37.20
2023-01-12T08:05:26.214Z,35.90
2023-01-12T08:06:29.481Z,38.60
2023-01-12T08:07:32.732Z,39.00
2023-01-12T08:08:35.990Z,33.00
2023-01-12T08:09:38.880Z,38.10
2023-01-12T08:10:43.729Z,39.30
2023-01-12T08:11:46.822Z,35.50
2023-01-12T08:12:53.107Z,37.60
2023-01-12T08:13:57.964Z,37.80
2023-01-12T08:15:00.880Z,40.40
2023-01-12T08:16:12.428Z,39.20
2023-01-12T08:17:19.105Z,40.30
2023-01-12T08:18:46.291Z,38.60
2023-01-12T08:19:53.063Z,36.60
2023-01-12T08:21:01.045Z,33.90
2023-01-12T08:22:08.119Z,36.60
2023-01-12T08:23:19.584Z,33.00
2023-01-12T08:24:28.778Z,34.40
2023-01-12T08:25:35.734Z,35.20
2023-01-12T08:26:42.828Z,35.30
2023-01-12T08:27:50.257Z,30.90
2023-01-12T08:28:59.529Z,32.30
2023-01-12T08:30:04.450Z,28.40
2023-01-12T08:31:10.596Z,33.80
2023-01-12T08:32:18.181Z,33.60
2023-01-12T08:33:21.221Z,32.70
2023-01-12T08:34:24.743Z,33.50
2023-01-12T08:35:30.346Z,30.70
2023-01-12T08:36:34.486Z,33.20
2023-01-12T08:37:37.733Z,32.60
2023-01-12T08:38:40.710Z,46.10
2023-01-12T08:39:43.797Z,32.70
2023-01-12T08:41:05.515Z,31.10
2023-01-12T08:42:09.203Z,31.20
2023-01-12T08:43:12.156Z,34.00
2023-01-12T08:44:15.550Z,35.10
2023-01-12T08:45:18.472Z,34.50
2023-01-12T08:46:21.460Z,34.20
2023-01-12T08:47:30.804Z,28.80
2023-01-12T08:48:37.971Z,34.80
2023-01-12T08:49:41.180Z,32.00
2023-01-12T08:50:44.073Z,31.20
2023-01-12T08:51:47.270Z,33.60
2023-01-12T08:52:50.284Z,33.30
2023-01-12T08:53:53.239Z,32.20
2023-01-12T08:54:56.672Z,29.40
2023-01-12T08:55:59.941Z,29.80
2023-01-12T08:57:02.891Z,28.00
2023-01-12T08:58:05.864Z,27.50
2023-01-12T08:59:09.354Z,25.60
2023-01-12T09:00:13.175Z,30.90
2023-01-12T09:01:17.478Z,25.40
2023-01-12T09:02:20.585Z,28.00
2023-01-12T09:03:23.681Z,28.80
2023-01-12T09:04:26.584Z,27.30
2023-01-12T09:05:29.486Z,25.10
2023-01-12T09:06:37.320Z,24.20
2023-01-12T09:07:40.903Z,25.30
2023-01-12T09:08:45.174Z,27.30
2023-01-12T09:09:48.035Z,29.20
2023-01-12T09:10:51.024Z,23.60
2023-01-12T09:11:53.938Z,21.60
2023-01-12T09:12:56.882Z,21.70
2023-01-12T09:13:59.890Z,24.40
2023-01-12T09:15:02.755Z,29.10
2023-01-12T09:16:13.380Z,24.90
2023-01-12T09:17:18.041Z,24.10
2023-01-12T09:18:21.042Z,27.60
2023-01-12T09:19:23.901Z,25.00
2023-01-12T09:20:26.842Z,25.60
2023-01-12T09:21:30.851Z,25.60
2023-01-12T09:22:33.709Z,24.70
2023-01-12T09:23:37.438Z,25.10
2023-01-12T09:24:40.302Z,25.00
2023-01-12T09:25:43.174Z,19.90
2023-01-12T09:26:47.147Z,21.20
2023-01-12T09:27:50.013Z,24.60
2023-01-12T09:28:54.382Z,23.60
2023-01-12T09:29:57.216Z,20.40
2023-01-12T09:31:11.000Z,26.00
2023-01-12T09:32:14.004Z,28.40
2023-01-12T09:33:17.156Z,23.20
2023-01-12T09:34:20.303Z,21.80
2023-01-12T09:35:23.174Z,23.10
2023-01-12T09:36:35.180Z,22.10
2023-01-12T09:37:38.130Z,28.30
2023-01-12T09:38:43.225Z,20.30
2023-01-12T09:39:46.217Z,22.10
2023-01-12T09:40:49.109Z,22.50
2023-01-12T09:42:10.681Z,18.80
2023-01-12T09:43:33.823Z,20.00
2023-01-12T09:45:00.778Z,20.40
2023-01-12T09:46:39.311Z,17.80
2023-01-12T09:47:53.873Z,18.50
2023-01-12T09:48:56.841Z,21.60
2023-01-12T09:50:19.760Z,18.70
2023-01-12T09:51:36.728Z,19.80
2023-01-12T09:52:50.575Z,19.00
2023-01-12T09:53:53.419Z,21.50
2023-01-12T09:54:56.759Z,17.70
2023-01-12T09:56:03.121Z,12.80
2023-01-12T09:57:41.514Z,18.00
2023-01-12T09:59:40.112Z,16.60
2023-01-12T10:00:43.039Z,17.20
2023-01-12T10:01:46.581Z,20.10
2023-01-12T10:03:06.117Z,14.80
2023-01-12T10:04:09.121Z,15.50
2023-01-12T10:05:39.657Z,16.40
2023-01-12T10:06:43.062Z,17.50
2023-01-12T10:07:46.776Z,15.30
2023-01-12T10:08:52.506Z,14.60
2023-01-12T10:09:55.364Z,16.00
2023-01-12T10:11:16.956Z,15.70
2023-01-12T10:12:26.987Z,13.10
2023-01-12T10:13:51.029Z,15.60
2023-01-12T10:15:24.073Z,13.30
2023-01-12T10:16:57.981Z,12.30
2023-01-12T10:18:11.627Z,13.90
2023-01-12T10:19:35.895Z,18.00
2023-01-12T10:20:42.640Z,12.00
2023-01-12T10:21:47.496Z,12.90
2023-01-12T10:22:55.725Z,13.50
2023-01-12T10:23:59.213Z,17.40
2023-01-12T10:25:02.395Z,16.30
2023-01-12T10:26:21.659Z,11.90
2023-01-12T10:27:24.545Z,12.90
2023-01-12T10:28:31.104Z,16.30
2023-01-12T10:29:34.045Z,14.20
2023-01-12T10:30:40.046Z,12.80
2023-01-12T10:31:43.206Z,12.10
2023-01-12T10:32:46.643Z,10.00
2023-01-12T10:34:02.724Z,12.70
2023-01-12T10:35:12.393Z,11.00
2023-01-12T10:37:22.457Z,11.60
2023-01-12T10:38:38.559Z,13.00
2023-01-12T10:39:44.472Z,10.90
2023-01-12T10:41:06.884Z,14.30
2023-01-12T10:42:32.579Z,16.30
2023-01-12T10:43:36.174Z,12.20
2023-01-12T10:44:39.020Z,13.80
2023-01-12T10:45:43.857Z,10.90
2023-01-12T10:47:10.275Z,13.50
2023-01-12T10:48:22.012Z,12.90
2023-01-12T10:49:25.212Z,13.50
2023-01-12T10:50:31.648Z,12.30
2023-01-12T10:51:36.011Z,11.90
2023-01-12T10:52:41.140Z,14.30
2023-01-12T10:54:11.400Z,12.70
2023-01-12T10:55:22.233Z,15.10
2023-01-12T10:56:35.939Z,12.30
2023-01-12T10:57:44.556Z,12.90
2023-01-12T10:59:02.095Z,14.60
2023-01-12T11:00:05.941Z,15.30
2023-01-12T11:01:08.906Z,12.90
2023-01-12T11:02:15.113Z,13.80
2023-01-12T11:03:31.214Z,13.20
2023-01-12T11:04:39.629Z,15.20
2023-01-12T11:05:43.001Z,12.30
2023-01-12T11:06:56.542Z,15.70
2023-01-12T11:08:00.057Z,15.60
2023-01-12T11:09:27.966Z,18.60
2023-01-12T11:10:35.488Z,14.90
2023-01-12T11:11:38.745Z,12.90
2023-01-12T11:12:41.631Z,12.00
2023-01-12T11:13:44.812Z,14.50
2023-01-12T11:14:58.874Z,12.10
2023-01-12T11:16:39.116Z,17.20
2023-01-12T11:18:11.462Z,16.00
2023-01-12T11:19:22.008Z,15.90
2023-01-12T11:20:34.772Z,12.60
2023-01-12T11:21:41.544Z,14.00
2023-01-12T11:22:47.229Z,16.00
2023-01-12T11:24:00.491Z,13.60
2023-01-12T11:25:20.535Z,14.80
2023-01-12T11:26:42.974Z,15.80
2023-01-12T11:27:52.323Z,15.00
2023-01-12T11:29:02.211Z,15.90
2023-01-12T11:31:36.328Z,16.70
2023-01-12T11:32:44.624Z,14.20
2023-01-12T11:33:53.273Z,15.20
2023-01-12T11:35:05.436Z,15.40
2023-01-12T11:36:23.707Z,20.30
2023-01-12T11:37:26.585Z,16.90
2023-01-12T11:38:37.033Z,17.10
2023-01-12T11:39:52.173Z,19.70
2023-01-12T11:40:58.718Z,15.40
2023-01-12T11:42:39.942Z,14.20
2023-01-12T11:43:56.343Z,16.60
2023-01-12T11:45:08.766Z,14.90
2023-01-12T11:46:37.778Z,15.20
2023-01-12T11:47:47.336Z,17.10
2023-01-12T11:48:54.160Z,15.00
2023-01-12T11:50:15.096Z,16.00
2023-01-12T11:51:18.724Z,13.70
2023-01-12T11:52:22.069Z,14.90
2023-01-12T11:53:26.054Z,15.90
2023-01-12T11:54:31.949Z,16.10
2023-01-12T11:55:46.445Z,14.20
2023-01-12T11:57:03.264Z,14.60
2023-01-12T11:58:23.872Z,14.90
2023-01-12T11:59:29.485Z,11.40
2023-01-12T12:00:44.813Z,13.20
2023-01-12T12:02:12.422Z,15.10
2023-01-12T12:03:30.284Z,13.60
2023-01-12T12:05:06.720Z,10.50
2023-01-12T12:06:38.232Z,11.00
2023-01-12T12:07:50.425Z,10.50
2023-01-12T12:09:11.258Z,10.60
2023-01-12T12:10:22.514Z,10.50
2023-01-12T12:12:04.031Z,13.30
2023-01-12T12:13:06.939Z,14.00
2023-01-12T12:14:41.133Z,10.60
2023-01-12T12:16:09.919Z,14.50
2023-01-12T12:17:22.404Z,14.90
2023-01-12T12:18:50.295Z,10.80
2023-01-12T12:20:27.200Z,11.20
2023-01-12T12:21:30.580Z,12.10
2023-01-12T12:22:46.145Z,12.40
2023-01-12T12:24:19.305Z,9.60
2023-01-12T12:25:40.593Z,11.00
2023-01-12T12:26:49.755Z,10.20
2023-01-12T12:28:14.370Z,11.50
2023-01-12T12:29:23.466Z,11.40
2023-01-12T12:30:41.633Z,10.10
2023-01-12T12:32:08.743Z,14.80
2023-01-12T12:33:20.920Z,10.50
2023-01-12T12:34:50.665Z,10.20
2023-01-12T12:37:52.806Z,11.30
2023-01-12T12:39:07.959Z,11.00
2023-01-12T12:40:58.907Z,10.20
2023-01-12T12:42:29.640Z,11.70
2023-01-12T12:43:56.324Z,11.90
2023-01-12T12:45:25.261Z,12.00
2023-01-12T12:46:54.106Z,10.50
2023-01-12T12:48:07.555Z,11.90
2023-01-12T12:49:22.372Z,11.50
2023-01-12T12:50:35.160Z,11.20
2023-01-12T12:51:40.792Z,12.30
2023-01-12T12:52:48.884Z,12.40
2023-01-12T12:53:54.606Z,11.90
2023-01-12T12:54:59.379Z,11.20
2023-01-12T12:56:12.088Z,12.00
2023-01-12T12:57:16.946Z,11.70
2023-01-12T12:58:22.875Z,9.30
2023-01-12T12:59:31.831Z,12.10
2023-01-12T13:00:42.900Z,14.10
2023-01-12T13:01:55.352Z,13.30
2023-01-12T13:03:00.216Z,11.10
2023-01-12T13:04:05.224Z,10.40
2023-01-12T13:05:10.297Z,10.90
2023-01-12T13:06:22.542Z,11.00
2023-01-12T13:07:26.533Z,13.20
2023-01-12T13:08:35.603Z,11.40
2023-01-12T13:09:40.092Z,10.20
2023-01-12T13:10:49.681Z,15.20
2023-01-12T13:11:59.107Z,12.40
2023-01-12T13:13:22.490Z,11.40
2023-01-12T13:14:28.668Z,11.40
2023-01-12T13:15:37.019Z,12.20
2023-01-12T13:16:51.557Z,12.20
2023-01-12T13:17:55.823Z,13.10
2023-01-12T13:18:58.719Z,11.40
2023-01-12T13:20:08.291Z,15.30
2023-01-12T13:21:42.587Z,10.00
2023-01-12T13:22:50.969Z,12.70
2023-01-12T13:24:14.719Z,16.20
2023-01-12T13:25:19.727Z,9.70
2023-01-12T13:26:39.332Z,11.90
2023-01-12T13:29:28.239Z,11.40
2023-01-12T13:30:31.189Z,12.60
2023-01-12T13:31:34.181Z,11.10
2023-01-12T13:32:42.786Z,10.10
2023-01-12T13:33:45.683Z,8.20
2023-01-12T13:34:49.516Z,10.30
2023-01-12T13:35:52.359Z,9.40
2023-01-12T13:37:12.852Z,7.90
2023-01-12T13:38:27.905Z,9.90
2023-01-12T13:39:33.694Z,8.60
2023-01-12T13:40:38.055Z,10.00
2023-01-12T13:42:02.099Z,11.50
2023-01-12T13:43:19.990Z,11.30
2023-01-12T13:44:26.352Z,7.50
2023-01-12T13:45:29.660Z,9.00
2023-01-12T13:46:45.602Z,10.60
2023-01-12T13:47:51.271Z,8.60
2023-01-12T13:48:56.041Z,8.60
2023-01-12T13:50:03.315Z,10.60
2023-01-12T13:51:38.851Z,9.00
2023-01-12T13:52:42.796Z,8.20
2023-01-12T13:53:58.274Z,8.10
2023-01-12T13:55:01.783Z,12.70
2023-01-12T13:56:08.127Z,8.80
2023-01-12T13:57:20.323Z,9.00
2023-01-12T13:58:23.800Z,9.30
2023-01-12T13:59:28.241Z,10.60
2023-01-12T14:00:35.808Z,11.50
2023-01-12T14:01:41.092Z,8.10
2023-01-12T14:02:44.155Z,9.50
2023-01-12T14:04:05.005Z,8.20
2023-01-12T14:05:19.872Z,10.70
2023-01-12T14:06:55.900Z,8.30
2023-01-12T14:08:17.548Z,8.10
2023-01-12T14:10:14.760Z,8.20
2023-01-12T14:12:01.673Z,11.80
2023-01-12T14:13:42.192Z,9.80
2023-01-12T14:15:31.680Z,7.20
2023-01-12T14:18:13.119Z,9.60
2023-01-12T14:19:28.656Z,10.00
2023-01-12T14:20:41.412Z,10.00
2023-01-12T14:21:57.085Z,9.40
2023-01-12T14:23:15.829Z,9.10
2023-01-12T14:24:25.008Z,7.60
2023-01-12T14:25:27.983Z,13.60
2023-01-12T14:26:35.659Z,8.80
2023-01-12T14:27:39.151Z,8.90
2023-01-12T14:28:47.158Z,9.50
2023-01-12T14:29:51.149Z,9.90
2023-01-12T14:30:55.945Z,9.20
2023-01-12T14:31:58.876Z,11.10
2023-01-12T14:33:01.754Z,8.40
2023-01-12T14:34:05.775Z,11.20
2023-01-12T14:35:18.836Z,10.80
2023-01-12T14:36:29.290Z,9.80
2023-01-12T14:37:35.457Z,9.30
2023-01-12T14:38:42.062Z,11.50
2023-01-12T14:39:47.015Z,11.40
2023-01-12T14:41:31.921Z,8.40
2023-01-12T14:42:53.991Z,11.10
2023-01-12T14:44:16.049Z,8.90
2023-01-12T14:45:44.076Z,8.40
2023-01-12T14:46:50.831Z,12.10
2023-01-12T14:47:53.823Z,11.10
2023-01-12T14:49:04.986Z,13.20
2023-01-12T14:50:13.760Z,10.50
2023-01-12T14:51:18.208Z,9.60
2023-01-12T14:52:33.285Z,9.60
2023-01-12T14:53:42.371Z,21.60
2023-01-12T14:54:45.272Z,9.30
2023-01-12T14:55:48.227Z,8.70